Cape Coral, FL (33915)

9:45 PM EDT on July 05, 2015 (GMT -0400)
Mariner/NW Softball Complex | | Change Station
CLOSE
Current Station
Personal Weather Station
Location: Cape Coral, FL
Elevation: 16 ft
Nearby Weather Stations

Elev 16 ft 26.67 °N, 82.01 °W | Updated 3 minutes ago

Thunderstorm
Thunderstorm
72.5 °F
Feels Like 75 °F
N
3.0
Wind Variable Wind from ENE
Gusts 11.0 mph

Today
High -- | Low -- °F
--% Chance of Precip.
Yesterday
High -- | Low -- °F
Precip. -- in
6:39 AM 8:25 PM
Waning Gibbous, 80% visible
Pressure 30.20 in
Visibility 2.0 miles
Clouds Overcast 4500 ft
Heat Index 75 °F
Dew Point 33 °F
Humidity 23%
Rainfall 0.34 in
Snow Depth Not available.
UV 0 out of 12
Pollen 3.70 out of 12
Air Quality Not available.
Flu Activity Not available.
SPECI KFMY 060143Z 36010KT 2SM +TSRA BR OVC045 23/22 A3020 RMK AO2 LTG DSNT ALQDS P0091 T02280222 $

More Conditions Fewer Conditions

Pressure 30.20 in
Visibility 2.0 miles
Clouds Overcast 4500 ft
Heat Index 75 °F
Dew Point 33 °F
Humidity 23%
Rainfall 0.34 in
Snow Depth Not available.
UV 0 out of 12
Pollen 3.70 out of 12
Air Quality Not available.
Flu Activity Not available.
SPECI KFMY 060143Z 36010KT 2SM +TSRA BR OVC045 23/22 A3020 RMK AO2 LTG DSNT ALQDS P0091 T02280222 $

More Conditions Fewer Conditions

10-Day Weather Forecast

×

Almanac

Astronomy

Jul. 05, 2015 Rise Set
Actual Time
Civil Twilight
Nautical Twilight
Astronomical Twilight
Moon
Length of Visible Light
Length of Day
Tomorrow will be .
, % of the Moon is Illuminated

Today's Extremes

State Highs State Lows

Community

WunderPhotos

Upload Photos

1,835,443 photos uploaded!

WunderBlogs® & News

Nearby

Air Quality

  Air Quality AQ Index Pollutant
Not available.

Snow Depth

Station Depth Elevation

Earthquake Activity

City Distance Mag. Time & Date
Minimum magnitude displayed is 2.5.

Coastal Water Temperatures

Place Temperature

Stations

Nearby Weather Stations

Station Location Temp. Windchill Dew Point Humidity Wind Precip. Elev Updated Type